Time;durP1;ratioP1;P1;durP2;ratioP2;P2;SDS_P1;SDS_P2;PMS_P1;PMS_P2;Temp;Humidity;BMP_temperature;BMP_pressure;BME280_temperature;BME280_humidity;BME280_pressure;Samples;Min_cycle;Max_cycle;Signal;HPM_P1;HPM_P2
2024/01/12 00:02:25;;;;;;;25.83;12.68;;;;;;;-3.67;73.24;93499.75;2047607;70;20642;-78
2024/01/12 00:04:52;;;;;;;28.08;12.60;;;;;;;-3.58;72.96;93502.28;2048146;70;20179;-79
2024/01/12 00:07:18;;;;;;;24.50;12.65;;;;;;;-3.78;73.67;93497.00;2047499;70;20163;-78
2024/01/12 00:09:43;;;;;;;27.67;13.13;;;;;;;-3.70;73.58;93505.53;2048034;70;20178;-79
2024/01/12 00:12:09;;;;;;;23.67;12.50;;;;;;;-3.70;73.02;93498.03;2047988;70;20579;-79
2024/01/12 00:14:37;;;;;;;27.13;12.45;;;;;;;-3.78;73.91;93504.53;2047460;70;20598;-78
2024/01/12 00:17:03;;;;;;;25.95;12.20;;;;;;;-3.69;73.30;93491.28;2048118;70;20226;-79
2024/01/12 00:19:29;;;;;;;24.20;11.55;;;;;;;-3.69;72.73;93491.28;2045702;70;20233;-78
2024/01/12 00:21:54;;;;;;;23.27;11.65;;;;;;;-3.60;73.17;93504.78;2048061;70;20529;-78
2024/01/12 00:24:20;;;;;;;23.60;10.85;;;;;;;-3.72;73.21;93494.25;2047534;70;20218;-79
2024/01/12 00:26:48;;;;;;;22.70;11.32;;;;;;;-3.65;73.30;93500.03;2047908;70;20147;-79
2024/01/12 00:29:13;;;;;;;26.98;11.55;;;;;;;-3.66;72.92;93495.78;2047392;70;20139;-78
2024/01/12 00:31:39;;;;;;;25.02;11.25;;;;;;;-3.70;72.11;93495.28;2048055;70;20148;-78
2024/01/12 00:34:05;;;;;;;21.88;10.68;;;;;;;-3.70;72.98;93500.78;2048116;70;20174;-78
2024/01/12 00:36:30;;;;;;;18.73;10.30;;;;;;;-3.72;72.59;93500.50;2050276;70;20237;-78
2024/01/12 00:38:57;;;;;;;17.48;9.48;;;;;;;-3.73;73.17;93501.03;2048076;70;20616;-78
2024/01/12 00:41:23;;;;;;;21.30;9.50;;;;;;;-3.66;73.34;93509.53;2047948;70;20155;-78
2024/01/12 00:43:51;;;;;;;15.65;7.97;;;;;;;-3.71;72.69;93493.00;2050148;70;20533;-78
2024/01/12 00:46:19;;;;;;;24.42;11.30;;;;;;;-4.07;73.03;93502.97;2050263;70;20138;-78
2024/01/12 00:48:49;;;;;;;26.88;11.70;;;;;;;-4.03;72.95;93515.25;2044412;70;20614;-78
2024/01/12 00:51:17;;;;;;;22.45;10.90;;;;;;;-3.93;72.87;93515.75;2047857;70;20650;-78
2024/01/12 00:53:45;;;;;;;20.58;10.80;;;;;;;-3.94;72.88;93517.75;2048115;70;20305;-78
2024/01/12 00:56:12;;;;;;;23.40;11.60;;;;;;;-3.97;72.54;93510.50;2048094;70;20644;-79
2024/01/12 00:58:37;;;;;;;23.85;11.02;;;;;;;-3.96;72.75;93517.50;2047976;70;20171;-79
2024/01/12 01:01:04;;;;;;;22.75;11.45;;;;;;;-3.97;72.68;93512.50;2047409;70;20169;-79
2024/01/12 01:03:33;;;;;;;22.17;10.93;;;;;;;-3.91;72.63;93505.75;2048094;70;20221;-79
2024/01/12 01:05:59;;;;;;;20.40;9.77;;;;;;;-3.92;72.81;93506.25;2048102;70;20130;-78
2024/01/12 01:08:24;;;;;;;20.58;10.05;;;;;;;-3.90;72.96;93501.00;2047549;70;20229;-79
2024/01/12 01:10:50;;;;;;;18.50;10.10;;;;;;;-3.87;72.76;93505.50;2048018;70;20526;-79
2024/01/12 01:13:16;;;;;;;18.92;9.80;;;;;;;-3.91;72.37;93516.00;2047971;70;20585;-80
2024/01/12 01:15:42;;;;;;;20.30;10.68;;;;;;;-4.00;72.41;93521.72;2048322;70;20577;-79
2024/01/12 01:18:10;;;;;;;20.20;9.65;;;;;;;-4.05;72.28;93517.72;2047559;70;20155;-78
2024/01/12 01:20:37;;;;;;;19.73;10.35;;;;;;;-4.02;72.53;93529.75;2048233;70;20170;-78
2024/01/12 01:23:04;;;;;;;20.15;9.57;;;;;;;-4.00;72.44;93518.97;2048323;70;20151;-79
2024/01/12 01:25:29;;;;;;;19.77;10.60;;;;;;;-4.06;71.88;93524.47;2048267;70;20151;-79
2024/01/12 01:27:55;;;;;;;19.48;10.45;;;;;;;-4.14;71.97;93526.19;2048008;70;20183;-78
2024/01/12 01:30:25;;;;;;;20.50;9.75;;;;;;;-4.15;71.98;93533.69;2048191;70;20135;-78
2024/01/12 01:32:50;;;;;;;19.52;10.18;;;;;;;-4.23;72.25;93531.91;2047531;70;20142;-78
2024/01/12 01:35:19;;;;;;;19.60;10.07;;;;;;;-4.25;72.05;93534.41;2045685;70;20150;-79
2024/01/12 01:37:45;;;;;;;22.42;10.30;;;;;;;-4.45;72.65;93543.56;2047489;70;20169;-78
2024/01/12 01:40:10;;;;;;;20.10;10.15;;;;;;;-4.30;72.46;93543.41;2047961;70;20146;-78
2024/01/12 01:42:38;;;;;;;20.08;10.30;;;;;;;-4.32;72.16;93535.63;2047798;70;20588;-79
2024/01/12 01:45:04;;;;;;;19.42;9.73;;;;;;;-4.14;71.98;93553.69;2047969;70;20142;-79
2024/01/12 01:47:30;;;;;;;20.17;10.68;;;;;;;-4.26;72.04;93557.66;2047739;70;20150;-78
2024/01/12 01:49:57;;;;;;;19.58;10.38;;;;;;;-4.23;71.90;93559.41;2047865;70;20161;-78
2024/01/12 01:52:26;;;;;;;18.42;9.73;;;;;;;-4.29;71.94;93564.91;2047389;70;20209;-78
2024/01/12 01:54:53;;;;;;;21.52;10.90;;;;;;;-4.53;72.55;93570.03;2047350;70;20150;-79
2024/01/12 01:57:20;;;;;;;18.98;10.20;;;;;;;-4.48;72.87;93559.06;2047792;70;20143;-79
2024/01/12 01:59:46;;;;;;;23.52;10.82;;;;;;;-4.42;72.93;93565.34;2047804;70;20151;-79
2024/01/12 02:02:12;;;;;;;20.52;10.05;;;;;;;-4.43;72.51;93557.59;2048260;70;20143;-78
2024/01/12 02:04:38;;;;;;;27.90;12.18;;;;;;;-4.45;72.96;93560.06;2048330;70;20142;-79
2024/01/12 02:07:05;;;;;;;24.95;12.45;;;;;;;-4.83;74.26;93555.88;2048465;70;20147;-78
2024/01/12 02:09:32;;;;;;;22.00;10.85;;;;;;;-4.59;73.45;93561.75;2048349;70;20582;-78
2024/01/12 02:11:58;;;;;;;21.40;10.20;;;;;;;-4.50;73.36;93578.03;2044950;70;20514;-78
2024/01/12 02:14:24;;;;;;;21.92;10.05;;;;;;;-4.44;73.48;93576.09;2047792;70;20143;-79
2024/01/12 02:16:51;;;;;;;21.35;10.20;;;;;;;-4.42;73.33;93576.34;2048745;70;20206;-79
2024/01/12 02:19:17;;;;;;;18.88;9.65;;;;;;;-4.47;72.98;93595.56;2048981;70;20186;-79
2024/01/12 02:21:43;;;;;;;17.17;9.80;;;;;;;-4.54;73.00;93591.25;2049074;70;20480;-79
2024/01/12 02:24:08;;;;;;;18.52;9.18;;;;;;;-4.52;73.16;93596.28;2048444;70;20214;-79
2024/01/12 02:26:34;;;;;;;21.83;10.05;;;;;;;-4.51;73.15;93589.53;2048694;70;20157;-77
2024/01/12 02:29:02;;;;;;;16.48;8.77;;;;;;;-4.57;73.10;93594.25;2048987;70;20153;-78
2024/01/12 02:31:30;;;;;;;19.25;9.23;;;;;;;-4.63;73.02;93592.22;2045331;70;20158;-79
2024/01/12 02:33:55;;;;;;;17.02;9.10;;;;;;;-4.72;73.33;93591.66;2048417;70;20229;-78
2024/01/12 02:36:26;;;;;;;18.50;9.43;;;;;;;-4.63;73.14;93594.97;2046188;70;20159;-79
2024/01/12 02:38:52;;;;;;;16.73;8.65;;;;;;;-4.56;72.63;93596.50;2048401;70;20139;-79
2024/01/12 02:41:18;;;;;;;17.77;8.60;;;;;;;-4.55;72.81;93594.50;2048220;70;20206;-79
2024/01/12 02:43:44;;;;;;;17.75;9.40;;;;;;;-4.66;72.96;93603.44;2048306;70;20259;-79
2024/01/12 02:46:11;;;;;;;18.02;9.45;;;;;;;-4.65;73.18;93602.19;2048289;70;20146;-79
2024/01/12 02:48:37;;;;;;;18.92;9.30;;;;;;;-4.75;72.98;93600.88;2048269;70;20172;-79
2024/01/12 02:51:04;;;;;;;20.65;9.73;;;;;;;-4.74;72.61;93605.13;2047588;70;20240;-78
2024/01/12 02:53:30;;;;;;;15.63;8.60;;;;;;;-4.82;72.25;93596.59;2048322;70;20218;-78
2024/01/12 02:55:56;;;;;;;16.48;9.00;;;;;;;-4.81;72.35;93589.88;2048338;70;20230;-78
2024/01/12 02:58:22;;;;;;;18.67;9.10;;;;;;;-5.12;73.63;93587.91;2048020;70;20694;-79
2024/01/12 03:00:48;;;;;;;16.80;8.93;;;;;;;-5.04;73.74;93582.69;2048271;70;20614;-78
2024/01/12 03:03:13;;;;;;;17.58;8.63;;;;;;;-4.82;73.53;93587.59;2048383;70;20135;-77
2024/01/12 03:05:40;;;;;;;18.80;8.80;;;;;;;-4.81;73.47;93589.09;2048397;70;20143;-80
2024/01/12 03:08:06;;;;;;;18.00;9.30;;;;;;;-4.84;72.97;93585.34;2047673;70;20150;-77
2024/01/12 03:10:32;;;;;;;17.10;8.20;;;;;;;-4.79;73.50;93578.38;2048159;70;20158;-79
2024/01/12 03:12:57;;;;;;;14.45;8.25;;;;;;;-4.80;72.98;93585.13;2047970;70;20155;-78
2024/01/12 03:15:23;;;;;;;15.90;8.40;;;;;;;-4.93;73.19;93569.06;2048241;70;20151;-78
2024/01/12 03:17:48;;;;;;;16.55;8.48;;;;;;;-4.79;73.55;93589.38;2048177;70;20530;-77
2024/01/12 03:20:14;;;;;;;18.42;8.40;;;;;;;-4.92;73.57;93570.56;2048221;70;20166;-78
2024/01/12 03:22:41;;;;;;;16.75;8.30;;;;;;;-4.89;73.73;93578.56;2048173;70;20238;-78
2024/01/12 03:25:08;;;;;;;16.88;8.50;;;;;;;-4.84;73.08;93581.84;2048142;70;20222;-78
2024/01/12 03:27:33;;;;;;;16.75;9.00;;;;;;;-5.01;73.38;93576.97;2048181;70;20523;-78
2024/01/12 03:29:59;;;;;;;15.38;8.38;;;;;;;-4.93;73.17;93569.06;2047553;70;20150;-78
2024/01/12 03:32:25;;;;;;;18.02;8.85;;;;;;;-4.91;72.66;93569.31;2048266;70;20182;-78
2024/01/12 03:34:50;;;;;;;17.63;9.52;;;;;;;-4.99;73.03;93571.03;2048170;70;20674;-78
2024/01/12 03:37:16;;;;;;;18.52;9.45;;;;;;;-4.97;72.61;93574.78;2048284;70;20205;-77
2024/01/12 03:39:42;;;;;;;14.40;8.20;;;;;;;-5.06;72.86;93569.47;2048198;70;20621;-78
2024/01/12 03:42:11;;;;;;;14.75;7.80;;;;;;;-5.20;73.19;93573.09;2045795;70;20598;-79
2024/01/12 03:44:36;;;;;;;16.52;8.70;;;;;;;-5.10;73.72;93577.16;2048181;70;20225;-79
2024/01/12 03:47:04;;;;;;;17.33;9.10;;;;;;;-5.01;72.79;93565.25;2048238;70;20155;-79
2024/01/12 03:49:32;;;;;;;15.77;8.48;;;;;;;-4.99;73.12;93571.78;2048076;70;20162;-78
2024/01/12 03:51:58;;;;;;;16.42;9.05;;;;;;;-5.05;72.76;93575.69;2048145;70;20606;-78
2024/01/12 03:54:24;;;;;;;19.00;9.02;;;;;;;-4.98;72.58;93580.75;2048158;70;20201;-78
2024/01/12 03:56:50;;;;;;;18.77;9.30;;;;;;;-5.01;72.15;93562.50;2047526;70;20149;-79
2024/01/12 03:59:17;;;;;;;22.13;9.15;;;;;;;-5.14;72.39;93573.88;2044678;70;20147;-79
2024/01/12 04:01:45;;;;;;;16.73;8.95;;;;;;;-5.05;72.32;93579.19;2044716;70;20154;-78
2024/01/12 04:04:11;;;;;;;19.88;9.40;;;;;;;-5.12;72.37;93568.69;2044848;70;20237;-78
2024/01/12 04:06:38;;;;;;;19.58;9.02;;;;;;;-5.30;72.98;93569.03;2044362;70;20135;-78
2024/01/12 04:09:04;;;;;;;23.85;10.23;;;;;;;-5.28;73.61;93570.03;2044413;70;20143;-78
2024/01/12 04:11:30;;;;;;;22.33;10.18;;;;;;;-5.18;73.31;93567.88;2044323;70;20171;-78
2024/01/12 04:13:57;;;;;;;21.35;11.10;;;;;;;-5.17;73.56;93558.41;2047042;70;20230;-78
2024/01/12 04:16:22;;;;;;;21.55;10.55;;;;;;;-5.19;73.49;93547.91;2044924;70;20139;-79
2024/01/12 04:18:48;;;;;;;24.85;11.43;;;;;;;-5.24;73.64;93559.59;2044305;70;20146;-78
2024/01/12 04:21:15;;;;;;;27.95;12.82;;;;;;;-5.24;73.58;93559.59;2044689;70;20551;-78
2024/01/12 04:23:41;;;;;;;26.92;12.88;;;;;;;-5.37;74.01;93560.00;2044881;70;20626;-78
2024/01/12 04:26:07;;;;;;;33.28;14.20;;;;;;;-5.57;74.68;93560.09;2044817;70;20135;-77
2024/01/12 04:28:33;;;;;;;50.75;14.93;;;;;;;-5.69;75.52;93561.97;2044113;70;20143;-78
2024/01/12 04:31:01;;;;;;;66.60;15.63;;;;;;;-5.93;77.69;93556.03;2044202;70;20599;-79
2024/01/12 04:33:26;;;;;;;69.03;16.30;;;;;;;-5.90;77.90;93555.03;2044741;70;20148;-79
2024/01/12 04:35:52;;;;;;;51.53;16.30;;;;;;;-5.57;77.94;93562.06;2044733;70;20576;-78
2024/01/12 04:38:19;;;;;;;38.53;15.73;;;;;;;-5.60;77.76;93546.56;2044739;70;20153;-79
2024/01/12 04:40:45;;;;;;;46.78;16.77;;;;;;;-5.43;77.55;93563.94;2044888;70;20202;-78
2024/01/12 04:43:10;;;;;;;56.00;16.70;;;;;;;-5.59;77.61;93559.81;2042575;70;20242;-78
2024/01/12 04:45:36;;;;;;;45.75;16.60;;;;;;;-5.43;77.85;93558.44;2044170;70;20154;-78
2024/01/12 04:48:02;;;;;;;70.80;15.35;;;;;;;-5.38;77.60;93560.50;2044161;70;20151;-78
2024/01/12 04:50:28;;;;;;;52.00;16.10;;;;;;;-5.40;77.08;93560.22;2044760;70;20155;-79
2024/01/12 04:52:54;;;;;;;37.22;15.90;;;;;;;-5.33;76.73;93565.25;2041440;70;20154;-78
2024/01/12 04:55:20;;;;;;;40.53;15.60;;;;;;;-5.44;77.23;93557.69;2042617;70;20152;-79
2024/01/12 04:57:46;;;;;;;39.72;15.43;;;;;;;-5.50;77.20;93554.13;2044699;70;20143;-79
2024/01/12 05:00:13;;;;;;;43.75;15.40;;;;;;;-5.49;77.27;93557.66;2045083;70;20598;-80
2024/01/12 05:02:40;;;;;;;38.58;15.52;;;;;;;-5.44;77.07;93565.94;2044386;70;20182;-80
2024/01/12 05:05:08;;;;;;;48.38;16.08;;;;;;;-5.45;77.14;93571.91;2044602;70;20567;-78
2024/01/12 05:07:34;;;;;;;36.10;15.77;;;;;;;-5.44;76.75;93567.94;2045030;70;20151;-80
2024/01/12 05:09:59;;;;;;;36.05;16.08;;;;;;;-5.47;76.50;93566.16;2042707;70;20179;-79
2024/01/12 05:12:26;;;;;;;37.47;15.13;;;;;;;-5.53;76.30;93559.88;2044758;70;20266;-79
2024/01/12 05:14:51;;;;;;;34.55;15.55;;;;;;;-5.56;76.25;93561.59;2045001;70;20523;-78
2024/01/12 05:17:18;;;;;;;31.85;14.55;;;;;;;-5.48;75.75;93578.38;2044772;70;20600;-78
2024/01/12 05:19:43;;;;;;;32.30;13.88;;;;;;;-5.43;75.91;93577.66;2044298;70;20254;-79
2024/01/12 05:22:09;;;;;;;39.53;15.60;;;;;;;-5.54;75.61;93591.28;2044733;70;20491;-78
2024/01/12 05:24:35;;;;;;;34.90;16.42;;;;;;;-5.62;76.22;93597.22;2044392;70;20170;-78
2024/01/12 05:27:00;;;;;;;38.85;16.50;;;;;;;-5.59;75.58;93598.22;2044668;70;20147;-78
2024/01/12 05:29:27;;;;;;;36.85;17.17;;;;;;;-5.79;76.41;93601.03;2044783;70;20177;-79
2024/01/12 05:31:54;;;;;;;45.28;19.05;;;;;;;-5.68;76.49;93609.34;2041406;70;20115;-78
2024/01/12 05:34:20;;;;;;;44.63;19.27;;;;;;;-5.68;75.75;93595.63;2044530;70;20603;-78
2024/01/12 05:36:46;;;;;;;39.75;18.70;;;;;;;-5.69;75.50;93608.59;2044927;70;20147;-79
2024/01/12 05:39:12;;;;;;;47.03;20.00;;;;;;;-5.75;75.50;93593.34;2045188;70;20146;-79
2024/01/12 05:41:38;;;;;;;44.95;19.98;;;;;;;-5.74;75.75;93594.84;2044394;70;20146;-80
2024/01/12 05:44:05;;;;;;;42.28;18.05;;;;;;;-5.75;75.56;93593.34;2045076;70;20173;-79
2024/01/12 05:46:30;;;;;;;42.60;18.17;;;;;;;-5.70;75.11;93598.88;2045007;70;20184;-79
2024/01/12 05:48:57;;;;;;;40.05;18.90;;;;;;;-5.77;75.39;93602.06;2045049;70;20192;-78
2024/01/12 05:51:23;;;;;;;42.40;18.00;;;;;;;-5.73;75.38;93607.31;2044999;70;20135;-79
2024/01/12 05:53:49;;;;;;;42.10;18.58;;;;;;;-5.76;75.54;93609.03;2045099;70;20202;-79
2024/01/12 05:56:15;;;;;;;40.33;17.77;;;;;;;-5.82;75.62;93599.22;2044949;70;20158;-78
2024/01/12 05:58:41;;;;;;;38.20;16.52;;;;;;;-5.76;75.17;93602.81;2045008;70;20170;-77
2024/01/12 06:01:07;;;;;;;36.10;16.70;;;;;;;-5.78;75.01;93597.78;2045161;70;20190;-77
2024/01/12 06:03:33;;;;;;;35.58;17.13;;;;;;;-5.72;74.74;93598.63;2047209;70;20143;-76
2024/01/12 06:05:58;;;;;;;36.63;17.55;;;;;;;-5.82;74.48;93593.75;2045114;70;20146;-78
2024/01/12 06:08:24;;;;;;;33.22;16.35;;;;;;;-5.80;74.94;93599.53;2044885;70;20158;-77
2024/01/12 06:10:53;;;;;;;35.58;17.25;;;;;;;-5.81;74.69;93601.50;2045131;70;20158;-78
2024/01/12 06:13:19;;;;;;;35.50;16.63;;;;;;;-5.86;74.57;93599.47;2044310;70;20190;-77
2024/01/12 06:15:44;;;;;;;37.40;18.05;;;;;;;-5.87;74.35;93606.91;2043751;70;20167;-78
2024/01/12 06:18:10;;;;;;;35.88;17.75;;;;;;;-5.86;74.46;93604.94;2044713;70;20234;-78
2024/01/12 06:20:38;;;;;;;37.00;17.52;;;;;;;-5.79;74.71;93606.50;2045002;70;20154;-78
2024/01/12 06:23:05;;;;;;;36.58;17.75;;;;;;;-5.76;74.50;93602.81;2045770;70;20157;-77
2024/01/12 06:25:36;;;;;;;37.55;17.85;;;;;;;-5.81;74.87;93603.50;2047335;70;20138;-77
2024/01/12 06:28:03;;;;;;;38.17;16.60;;;;;;;-5.92;74.57;93612.38;2046895;70;20258;-79
2024/01/12 06:30:28;;;;;;;33.40;16.77;;;;;;;-5.83;74.10;93606.72;2048351;70;20213;-78
2024/01/12 06:32:55;;;;;;;32.97;17.17;;;;;;;-5.84;74.16;93612.69;2048868;70;20151;-79
2024/01/12 06:35:21;;;;;;;32.95;15.82;;;;;;;-5.83;73.71;93601.22;2047615;70;20148;-78
2024/01/12 06:37:47;;;;;;;34.72;16.73;;;;;;;-5.90;73.59;93599.66;2049118;70;20143;-77
2024/01/12 06:40:14;;;;;;;36.60;16.83;;;;;;;-5.87;73.98;93614.38;2046810;70;20236;-75
2024/01/12 06:42:41;;;;;;;37.45;17.02;;;;;;;-5.91;73.71;93611.88;2049190;70;20206;-76
2024/01/12 06:45:09;;;;;;;32.50;16.48;;;;;;;-5.82;74.14;93618.44;2046933;70;20231;-77
2024/01/12 06:47:36;;;;;;;35.85;17.65;;;;;;;-5.79;73.53;93614.72;2046609;70;20315;-75
2024/01/12 06:50:02;;;;;;;43.30;19.63;;;;;;;-6.11;75.25;93608.44;2046551;70;20417;-75
2024/01/12 06:52:33;;;;;;;39.22;18.10;;;;;;;-6.00;74.80;93603.06;2047360;70;20616;-74
2024/01/12 06:55:01;;;;;;;44.13;19.48;;;;;;;-5.93;74.09;93605.41;2048371;70;20231;-76
2024/01/12 06:57:27;;;;;;;43.78;20.25;;;;;;;-5.98;73.64;93614.31;2045439;70;20563;-75
2024/01/12 06:59:52;;;;;;;47.33;20.60;;;;;;;-6.00;73.90;93608.53;2046121;70;20155;-76
2024/01/12 07:02:19;;;;;;;45.75;21.10;;;;;;;-6.00;73.93;93605.81;2046138;70;20257;-75
2024/01/12 07:04:45;;;;;;;46.33;22.20;;;;;;;-6.07;73.87;93606.97;2046215;70;20186;-74
2024/01/12 07:07:11;;;;;;;46.97;21.17;;;;;;;-5.99;73.75;93621.03;2045588;70;20154;-76
2024/01/12 07:09:36;;;;;;;42.47;20.88;;;;;;;-6.03;74.09;93596.56;2044853;70;20190;-77
2024/01/12 07:12:03;;;;;;;42.50;21.08;;;;;;;-5.94;73.76;93612.88;2044902;70;20159;-76
2024/01/12 07:14:29;;;;;;;41.47;20.30;;;;;;;-5.86;73.48;93615.94;2044867;70;20150;-74
2024/01/12 07:16:55;;;;;;;46.97;23.27;;;;;;;-5.81;73.06;93615.22;2044723;70;20159;-74
2024/01/12 07:19:23;;;;;;;46.35;22.30;;;;;;;-5.79;73.32;93617.47;2044825;70;20603;-75
2024/01/12 07:21:49;;;;;;;60.72;29.95;;;;;;;-5.77;73.50;93628.69;2045381;70;20541;-76
2024/01/12 07:24:15;;;;;;;56.60;26.75;;;;;;;-5.83;72.88;93636.88;2046119;70;20194;-74
2024/01/12 07:26:42;;;;;;;60.05;28.65;;;;;;;-6.00;73.37;93634.00;2046085;70;20225;-74
2024/01/12 07:29:12;;;;;;;59.72;28.90;;;;;;;-5.84;73.88;93634.63;2046382;70;20168;-75
2024/01/12 07:31:38;;;;;;;61.20;29.88;;;;;;;-5.91;74.67;93625.59;2045710;70;20597;-74
2024/01/12 07:34:04;;;;;;;71.93;33.10;;;;;;;-5.94;74.57;93632.06;2045461;70;20158;-74
2024/01/12 07:36:30;;;;;;;62.53;30.92;;;;;;;-5.93;74.92;93641.78;2045018;70;20191;-74
2024/01/12 07:38:57;;;;;;;75.03;36.85;;;;;;;-5.78;74.06;93638.19;2047095;70;20273;-75
2024/01/12 07:41:24;;;;;;;73.65;36.88;;;;;;;-5.79;74.26;93639.41;2044029;70;20166;-75
2024/01/12 07:43:49;;;;;;;78.95;37.90;;;;;;;-5.71;74.23;93646.75;2045823;70;20162;-74
2024/01/12 07:46:17;;;;;;;73.72;37.75;;;;;;;-5.73;74.06;93646.47;2044300;70;20303;-75
2024/01/12 07:48:43;;;;;;;71.15;36.78;;;;;;;-5.65;73.91;93646.81;2046319;70;20522;-75
2024/01/12 07:51:08;;;;;;;77.10;36.63;;;;;;;-5.57;73.59;93642.41;2045756;70;20210;-75
2024/01/12 07:53:34;;;;;;;77.20;36.88;;;;;;;-5.63;73.95;93636.84;2046337;70;20512;-75
2024/01/12 07:56:00;;;;;;;75.25;36.50;;;;;;;-5.62;73.65;93632.13;2046247;70;20146;-75
2024/01/12 07:58:26;;;;;;;86.30;38.45;;;;;;;-5.57;73.87;93639.66;2045033;70;20573;-77
2024/01/12 08:00:51;;;;;;;78.00;37.17;;;;;;;-5.57;73.87;93642.41;2046217;70;20625;-76
2024/01/12 08:03:18;;;;;;;85.15;37.65;;;;;;;-5.57;73.88;93642.41;2045958;70;20146;-74
2024/01/12 08:05:46;;;;;;;75.72;35.03;;;;;;;-5.51;73.77;93645.19;2048310;70;20174;-74
2024/01/12 08:08:12;;;;;;;83.45;37.22;;;;;;;-5.41;74.98;93649.28;2047912;70;20172;-75
2024/01/12 08:13:59;;;;;;;76.88;35.80;;;;;;;-5.33;73.85;93642.13;2041739;70;20250;-77
2024/01/12 08:16:27;;;;;;;69.93;33.53;;;;;;;-5.30;73.52;93641.16;2042153;70;20661;-77
2024/01/12 08:18:53;;;;;;;78.72;34.53;;;;;;;-5.35;73.30;93646.59;2043217;70;20234;-77
2024/01/12 08:21:18;;;;;;;77.93;34.38;;;;;;;-5.33;73.53;93641.38;2043829;70;20165;-78
2024/01/12 08:23:44;;;;;;;82.32;36.42;;;;;;;-5.34;73.46;93648.84;2043825;70;20158;-78
2024/01/12 08:26:09;;;;;;;80.85;34.60;;;;;;;-5.33;73.25;93653.09;2044564;70;20142;-78
2024/01/12 08:28:35;;;;;;;68.15;29.45;;;;;;;-5.51;73.55;93634.97;2044631;70;20173;-77
2024/01/12 08:31:03;;;;;;;60.05;29.85;;;;;;;-5.34;73.47;93648.09;2044010;70;20211;-77
2024/01/12 08:33:30;;;;;;;64.65;30.35;;;;;;;-5.33;73.07;93641.38;2043856;70;20182;-75
2024/01/12 08:35:56;;;;;;;67.35;31.15;;;;;;;-5.34;73.51;93631.63;2045805;70;20238;-74
2024/01/12 08:38:21;;;;;;;73.38;33.42;;;;;;;-5.30;73.46;93626.69;2042591;70;20258;-75
2024/01/12 08:40:47;;;;;;;70.45;32.58;;;;;;;-5.26;73.11;93625.22;2042895;70;20218;-75
2024/01/12 08:43:13;;;;;;;77.05;34.63;;;;;;;-5.21;73.65;93624.53;2043076;70;20162;-75
2024/01/12 08:45:39;;;;;;;76.80;34.92;;;;;;;-5.08;73.09;93626.13;2043331;70;20165;-75
2024/01/12 08:48:05;;;;;;;80.35;36.22;;;;;;;-4.70;73.50;93628.41;2043483;70;20175;-76
2024/01/12 08:50:33;;;;;;;82.78;38.28;;;;;;;-4.15;72.67;93629.19;2043404;70;20617;-75
2024/01/12 08:52:59;;;;;;;87.05;40.88;;;;;;;-3.84;74.10;93625.59;2043498;70;20143;-75
2024/01/12 08:55:24;;;;;;;90.78;42.72;;;;;;;-3.53;73.88;93621.16;2044685;70;20146;-77
2024/01/12 08:57:52;;;;;;;90.35;40.20;;;;;;;-3.34;73.03;93611.94;2044324;70;20155;-76
2024/01/12 09:00:17;;;;;;;86.57;39.03;;;;;;;-3.06;74.51;93611.22;2044627;70;20162;-76
2024/01/12 09:02:43;;;;;;;72.45;35.97;;;;;;;-2.83;72.41;93614.72;2044661;70;20154;-76
2024/01/12 09:05:09;;;;;;;52.58;26.55;;;;;;;-2.70;72.34;93616.94;2044543;70;20215;-75
2024/01/12 09:07:35;;;;;;;49.20;23.60;;;;;;;-2.36;70.83;93617.66;2044675;70;20143;-76
2024/01/12 09:10:01;;;;;;;47.38;24.85;;;;;;;-1.97;71.07;93623.09;2043572;70;20154;-76
2024/01/12 09:12:26;;;;;;;45.33;23.48;;;;;;;-1.91;71.34;93615.53;2044798;70;20139;-76
2024/01/12 09:14:52;;;;;;;49.58;24.08;;;;;;;-1.57;70.84;93618.13;2045112;70;20138;-76
2024/01/12 09:17:18;;;;;;;49.85;24.60;;;;;;;-1.33;70.14;93620.25;2045166;70;20322;-77
2024/01/12 09:19:43;;;;;;;46.20;24.65;;;;;;;-1.19;69.42;93618.41;2045269;70;20135;-76
2024/01/12 09:22:10;;;;;;;45.50;24.25;;;;;;;-1.58;69.67;93622.16;2045197;70;20201;-77
2024/01/12 09:24:35;;;;;;;41.20;21.65;;;;;;;-1.48;69.31;93628.13;2045155;70;20622;-76
2024/01/12 09:27:01;;;;;;;43.95;22.15;;;;;;;-1.32;68.43;93625.28;2047128;70;20218;-77
2024/01/12 09:29:27;;;;;;;46.78;23.92;;;;;;;-0.97;68.38;93639.63;2045174;70;20170;-75
2024/01/12 09:31:52;;;;;;;69.70;30.55;;;;;;;-0.72;66.99;93637.69;2045086;70;20146;-77
2024/01/12 09:34:18;;;;;;;52.25;24.70;;;;;;;-0.66;65.97;93624.56;2045165;70;20513;-76
2024/01/12 09:36:43;;;;;;;46.38;22.38;;;;;;;-0.70;66.56;93651.75;2045169;70;20210;-76
2024/01/12 09:39:14;;;;;;;32.47;17.02;;;;;;;-0.75;66.50;93647.00;2045090;70;20626;-76
2024/01/12 09:41:49;;;;;;;31.08;15.77;;;;;;;-0.04;66.48;93653.16;2045004;70;20234;-76
2024/01/12 09:44:20;;;;;;;40.15;20.08;;;;;;;0.11;64.40;93654.78;2044959;70;20528;-76
2024/01/12 09:47:06;;;;;;;62.50;24.58;;;;;;;0.29;64.08;93651.31;2045002;70;20177;-77
2024/01/12 09:49:31;;;;;;;42.03;20.33;;;;;;;0.85;63.35;93656.16;2044998;70;20139;-77
2024/01/12 09:51:59;;;;;;;37.50;21.08;;;;;;;0.91;62.59;93647.75;2045186;70;20150;-76
2024/01/12 09:54:24;;;;;;;36.17;18.55;;;;;;;1.12;62.72;93650.75;2045125;70;20598;-77
2024/01/12 09:56:51;;;;;;;43.53;20.05;;;;;;;1.75;62.68;93652.03;2045034;70;20143;-77
2024/01/12 09:59:20;;;;;;;43.28;21.23;;;;;;;1.98;60.90;93642.03;2047205;70;20293;-77
2024/01/12 10:01:48;;;;;;;39.13;19.08;;;;;;;2.25;61.09;93658.72;2045091;70;20147;-77
2024/01/12 10:04:14;;;;;;;32.15;14.82;;;;;;;2.67;61.21;93656.16;2045072;70;20155;-77
2024/01/12 10:06:40;;;;;;;26.42;13.02;;;;;;;2.82;60.46;93650.75;2044507;70;20596;-76
2024/01/12 10:09:06;;;;;;;20.25;11.60;;;;;;;3.32;59.82;93648.91;2045017;70;20169;-76
2024/01/12 10:11:32;;;;;;;18.58;10.57;;;;;;;3.52;59.35;93641.88;2045150;70;20612;-76
2024/01/12 10:13:58;;;;;;;17.45;10.60;;;;;;;3.80;57.57;93636.41;2045119;70;20147;-76
2024/01/12 10:16:28;;;;;;;23.67;12.73;;;;;;;4.01;56.79;93639.16;2045138;70;20525;-76
2024/01/12 10:19:00;;;;;;;15.75;9.32;;;;;;;3.48;55.69;93625.53;2045322;70;20609;-77
2024/01/12 10:21:26;;;;;;;15.77;8.52;;;;;;;3.80;56.83;93621.69;2045216;70;20173;-77
2024/01/12 10:24:05;;;;;;;19.65;9.80;;;;;;;4.52;55.27;93621.81;2045105;70;20530;-77
2024/01/12 10:26:31;;;;;;;17.05;9.93;;;;;;;3.75;55.28;93619.81;2044977;70;20170;-77
2024/01/12 10:29:03;;;;;;;16.33;9.95;;;;;;;3.50;54.75;93630.53;2047385;70;20143;-77
2024/01/12 10:31:30;;;;;;;16.98;9.93;;;;;;;4.28;54.34;93623.00;2045005;70;20142;-77
2024/01/12 10:34:00;;;;;;;18.38;9.05;;;;;;;4.78;53.89;93632.00;2044960;70;20147;-77
2024/01/12 10:36:30;;;;;;;18.08;10.95;;;;;;;4.99;52.93;93626.31;2045002;70;20613;-78
2024/01/12 10:38:59;;;;;;;17.60;10.32;;;;;;;5.66;51.57;93584.41;2045075;70;20173;-78
2024/01/12 10:41:25;;;;;;;17.42;10.40;;;;;;;6.44;51.37;93619.44;2044909;70;20573;-77
2024/01/12 10:43:53;;;;;;;17.42;10.00;;;;;;;6.86;47.88;93614.09;2045021;70;20139;-77
2024/01/12 10:46:36;;;;;;;16.65;9.25;;;;;;;6.38;48.69;93616.84;2044378;70;20145;-76
2024/01/12 10:49:25;;;;;;;16.05;8.98;;;;;;;7.12;49.13;93613.63;2047100;70;20546;-77
2024/01/12 10:52:12;;;;;;;16.58;9.60;;;;;;;8.44;47.42;93608.69;2044915;70;20295;-77
2024/01/12 10:54:50;;;;;;;16.08;9.32;;;;;;;8.91;45.91;93610.44;2045017;70;20526;-77
2024/01/12 10:57:16;;;;;;;17.67;10.18;;;;;;;9.52;44.56;93609.69;2044981;70;20167;-78
2024/01/12 10:59:44;;;;;;;17.50;10.05;;;;;;;10.53;43.53;93610.41;2047127;70;20166;-77
2024/01/12 11:02:13;;;;;;;14.20;9.18;;;;;;;10.00;42.80;93609.19;2044912;70;20662;-77
2024/01/12 11:04:40;;;;;;;18.30;9.35;;;;;;;9.82;43.26;93602.16;2044917;70;20139;-78
2024/01/12 11:07:06;;;;;;;14.65;8.43;;;;;;;10.96;42.85;93605.16;2045086;70;20179;-77
2024/01/12 11:09:32;;;;;;;15.63;9.18;;;;;;;11.14;42.46;93592.41;2045215;70;20147;-77
2024/01/12 11:12:15;;;;;;;14.38;9.32;;;;;;;13.11;39.21;93593.28;2044822;70;20162;-77
2024/01/12 11:14:41;;;;;;;17.90;10.27;;;;;;;15.39;37.17;93589.50;2044925;70;20583;-77
2024/01/12 11:17:07;;;;;;;16.70;11.65;;;;;;;15.24;36.15;93590.78;2044923;70;20607;-77
2024/01/12 11:19:34;;;;;;;17.38;10.18;;;;;;;14.96;35.93;93586.31;2044355;70;20158;-78
2024/01/12 11:22:07;;;;;;;15.48;10.98;;;;;;;15.60;33.85;93582.88;2045123;70;20155;-77